Time;durP1;ratioP1;P1;durP2;ratioP2;P2;SDS_P1;SDS_P2;PMS_P1;PMS_P2;Temp;Humidity;BMP_temperature;BMP_pressure;BME280_temperature;BME280_humidity;BME280_pressure;Samples;Min_cycle;Max_cycle;Signal;HPM_P1;HPM_P2
2022/01/22 00:01:50;;;;;;;21.13;7.73;;;;;;;4.01;92.36;103336.38;5025227;28;20048;-56
2022/01/22 00:04:16;;;;;;;19.93;7.37;;;;;;;4.04;92.11;103330.97;5028922;28;20049;-56
2022/01/22 00:06:41;;;;;;;23.10;8.37;;;;;;;4.04;92.03;103335.38;5028910;28;20019;-56
2022/01/22 00:09:07;;;;;;;17.97;7.50;;;;;;;4.05;92.19;103334.50;5028624;28;20457;-56
2022/01/22 00:11:39;;;;;;;19.60;8.13;;;;;;;4.06;92.37;103332.72;5027587;28;20049;-57
2022/01/22 00:16:49;;;;;;;17.70;7.73;;;;;;;4.08;92.41;103328.25;5029075;28;20408;-55
2022/01/22 00:19:15;;;;;;;19.97;8.10;;;;;;;4.09;92.31;103312.41;5027682;28;20053;-54
2022/01/22 00:21:40;;;;;;;14.53;7.00;;;;;;;4.11;92.57;103322.84;5028059;28;20064;-55
2022/01/22 00:24:09;;;;;;;20.10;7.67;;;;;;;4.11;92.38;103322.84;5028500;28;20035;-53
2022/01/22 00:26:34;;;;;;;16.45;7.45;;;;;;;4.11;92.21;103321.06;5026901;28;20026;-56
2022/01/22 00:28:59;;;;;;;22.67;7.87;;;;;;;4.13;92.47;103319.22;5026396;28;20041;-54
2022/01/22 00:31:25;;;;;;;18.50;7.20;;;;;;;4.14;92.58;103312.19;5027243;28;20029;-55
2022/01/22 00:33:50;;;;;;;18.37;7.77;;;;;;;4.12;92.28;103321.94;5028099;28;20032;-56
2022/01/22 00:36:16;;;;;;;24.17;8.03;;;;;;;4.15;92.44;103321.78;5027078;28;20079;-55
2022/01/22 00:38:41;;;;;;;15.80;7.87;;;;;;;4.16;92.07;103312.97;5025885;28;20111;-56
2022/01/22 00:41:07;;;;;;;16.77;7.97;;;;;;;4.15;92.10;103312.13;5027531;28;20045;-56
2022/01/22 00:43:32;;;;;;;19.10;8.10;;;;;;;4.14;92.40;103299.91;5028024;28;20035;-55
2022/01/22 00:45:57;;;;;;;20.57;8.50;;;;;;;4.13;92.08;103308.72;5028104;28;20025;-55
2022/01/22 00:48:22;;;;;;;21.77;8.37;;;;;;;4.17;92.35;103309.44;4967075;28;20491;-55
2022/01/22 00:50:51;;;;;;;17.83;8.67;;;;;;;4.16;92.40;103312.97;5027142;28;20035;-56
2022/01/22 00:53:17;;;;;;;18.15;9.15;;;;;;;4.15;92.22;103322.66;5026903;28;20034;-56
2022/01/22 00:55:42;;;;;;;21.67;9.30;;;;;;;4.16;92.15;103321.72;5027239;28;20118;-55
2022/01/22 00:58:07;;;;;;;18.47;9.87;;;;;;;4.17;92.07;103320.78;5027262;28;20029;-53
2022/01/22 01:00:33;;;;;;;21.13;10.07;;;;;;;4.15;92.29;103298.97;5026638;28;20025;-57
2022/01/22 01:02:58;;;;;;;17.27;10.20;;;;;;;4.17;92.32;103315.53;5026692;28;20026;-54
2022/01/22 01:05:23;;;;;;;21.87;10.27;;;;;;;4.16;91.87;103319.09;5023096;28;20389;-56
2022/01/22 01:07:49;;;;;;;19.00;10.43;;;;;;;4.16;92.31;103324.34;5027649;28;20555;-55
2022/01/22 01:10:16;;;;;;;23.63;10.67;;;;;;;4.17;92.16;103333.94;5026676;28;20025;-56
2022/01/22 01:12:42;;;;;;;20.67;10.67;;;;;;;4.18;91.96;103326.91;5027098;28;20473;-56
2022/01/22 01:15:19;;;;;;;20.40;10.83;;;;;;;4.18;92.06;103332.16;5026972;28;20028;-56
2022/01/22 01:34:10;;;;;;;22.37;11.00;;;;;;;4.18;92.55;103325.13;5024056;28;20091;-56
2022/01/22 01:36:37;;;;;;;23.03;10.37;;;;;;;4.17;92.45;103319.94;5027199;28;20022;-55
2022/01/22 01:39:05;;;;;;;22.73;10.90;;;;;;;4.16;92.48;103326.97;5026157;28;20037;-56
2022/01/22 01:41:40;;;;;;;26.03;11.87;;;;;;;4.16;92.43;103326.97;5026241;28;20022;-54
2022/01/22 01:44:06;;;;;;;22.10;11.40;;;;;;;4.18;92.52;103326.91;5026386;28;20108;-55
2022/01/22 01:46:33;;;;;;;18.83;11.03;;;;;;;4.16;92.69;103336.66;5027014;28;20117;-57
2022/01/22 01:48:59;;;;;;;29.30;12.00;;;;;;;4.14;92.79;103331.44;5026190;28;20508;-56
2022/01/22 01:51:30;;;;;;;28.23;12.53;;;;;;;4.13;93.14;103335.00;5026607;28;20496;-56
2022/01/22 01:54:05;;;;;;;22.83;12.20;;;;;;;4.08;93.17;103330.88;5027727;28;20400;-56
2022/01/22 01:59:16;;;;;;;22.87;11.97;;;;;;;4.04;93.42;103325.72;5029541;28;20498;-54
2022/01/22 02:01:42;;;;;;;20.93;12.10;;;;;;;4.03;93.78;103329.28;5030385;28;20026;-56
2022/01/22 02:04:10;;;;;;;24.57;12.80;;;;;;;4.02;93.97;103338.09;5030124;28;20043;-56
2022/01/22 02:06:36;;;;;;;24.00;12.63;;;;;;;4.01;93.91;103319.75;5029747;28;20035;-56
2022/01/22 02:09:07;;;;;;;23.73;12.87;;;;;;;4.03;93.96;103326.66;5029803;28;20033;-55
2022/01/22 02:11:33;;;;;;;25.77;12.70;;;;;;;4.04;94.04;103325.72;5030457;28;20072;-55
2022/01/22 02:23:31;;;;;;;21.43;12.93;;;;;;;4.03;94.40;103324.00;5030972;28;20076;-56
2022/01/22 02:25:10;;;;;;;23.07;13.37;;;;;;;4.08;94.61;103325.63;5030111;28;20095;-55
2022/01/22 02:27:35;;;;;;;25.83;13.10;;;;;;;4.08;94.70;103323.00;5029085;28;20401;-55
2022/01/22 02:30:01;;;;;;;25.90;14.40;;;;;;;4.11;94.43;103322.84;5029506;28;20038;-55
2022/01/22 02:32:54;;;;;;;29.73;14.77;;;;;;;4.09;94.75;103322.06;5028729;28;20087;-56
2022/01/22 02:35:28;;;;;;;25.50;15.30;;;;;;;4.09;94.85;103319.44;5029251;28;20152;-56
2022/01/22 02:38:00;;;;;;;34.33;15.60;;;;;;;4.07;94.70;103319.50;5026436;28;20029;-56
2022/01/22 02:40:34;;;;;;;27.20;15.40;;;;;;;4.08;94.77;103320.34;5028312;28;20176;-55
2022/01/22 02:43:00;;;;;;;28.23;16.10;;;;;;;4.04;95.17;103320.47;5028638;28;20060;-57
2022/01/22 02:45:26;;;;;;;30.87;16.23;;;;;;;4.06;95.20;103314.31;5029277;28;20040;-54
2022/01/22 02:47:52;;;;;;;30.97;17.90;;;;;;;4.04;95.24;103311.72;5030618;28;20021;-56
2022/01/22 02:50:19;;;;;;;32.43;17.47;;;;;;;4.05;95.59;103313.47;5027896;28;20018;-53
2022/01/22 02:52:45;;;;;;;33.20;17.33;;;;;;;4.06;95.33;103317.81;5029746;28;20032;-54
2022/01/22 02:55:12;;;;;;;34.60;18.47;;;;;;;4.07;95.40;103313.41;5028600;28;20492;-56
2022/01/22 02:57:38;;;;;;;32.57;18.03;;;;;;;4.05;95.41;103308.19;5029598;28;20361;-56
2022/01/22 03:00:11;;;;;;;32.93;18.13;;;;;;;4.07;95.51;103313.41;5028475;28;20476;-54
2022/01/22 03:02:37;;;;;;;34.90;17.40;;;;;;;4.06;95.42;103317.81;5029152;28;20038;-56
2022/01/22 03:05:03;;;;;;;27.00;18.10;;;;;;;4.08;95.68;103320.34;5027264;28;20025;-56
2022/01/22 03:07:28;;;;;;;36.00;19.30;;;;;;;4.09;95.58;103335.22;5028204;28;20064;-53
2022/01/22 03:10:00;;;;;;;36.07;18.67;;;;;;;4.09;95.77;103335.22;5028136;28;20072;-56
2022/01/22 03:17:57;;;;;;;37.60;19.87;;;;;;;4.10;96.40;103329.03;5029442;28;20095;-56
2022/01/22 03:28:00;;;;;;;39.53;21.70;;;;;;;4.09;96.47;103319.44;5026174;28;20040;-55
2022/01/22 03:30:26;;;;;;;38.70;23.40;;;;;;;4.11;96.37;103320.22;5027020;28;20021;-56
2022/01/22 03:32:54;;;;;;;44.90;23.63;;;;;;;4.11;96.49;103318.44;5024514;28;20037;-56
2022/01/22 03:37:51;;;;;;;42.63;23.87;;;;;;;4.13;97.09;103336.78;5028960;28;20033;-56
2022/01/22 03:40:17;;;;;;;39.33;22.50;;;;;;;4.13;97.15;103331.53;5024508;28;20040;-56
2022/01/22 03:42:42;;;;;;;41.00;24.53;;;;;;;4.12;96.76;103332.44;5028960;28;20025;-56
2022/01/22 03:45:11;;;;;;;42.07;23.53;;;;;;;4.13;96.86;103337.63;5027723;28;20072;-56
2022/01/22 03:47:37;;;;;;;43.43;25.13;;;;;;;4.13;96.80;103339.41;5028552;28;20060;-56
2022/01/22 03:50:05;;;;;;;46.63;25.60;;;;;;;4.14;96.91;103333.22;5026667;28;20337;-56
2022/01/22 03:52:30;;;;;;;45.17;25.27;;;;;;;4.16;97.24;103331.38;5027785;28;20052;-55
2022/01/22 03:54:56;;;;;;;47.40;26.47;;;;;;;4.16;97.01;103334.88;5027672;28;20029;-55
2022/01/22 03:57:24;;;;;;;46.17;25.83;;;;;;;4.17;97.19;103335.72;5028228;28;20021;-54
2022/01/22 03:59:52;;;;;;;44.73;26.43;;;;;;;4.16;97.46;103331.38;5027344;28;20307;-56
2022/01/22 04:05:03;;;;;;;46.97;27.10;;;;;;;4.17;97.41;103325.19;5025428;28;20076;-55
2022/01/22 04:10:15;;;;;;;49.73;27.23;;;;;;;4.16;97.62;103332.25;5027238;28;20120;-56
2022/01/22 04:15:15;;;;;;;50.63;29.90;;;;;;;4.18;98.05;103326.91;5027814;28;20037;-56
2022/01/22 04:26:13;;;;;;;52.23;28.13;;;;;;;4.19;98.02;103332.09;5028313;28;20040;-56
2022/01/22 04:28:38;;;;;;;52.47;28.07;;;;;;;4.20;98.29;103325.06;5027975;28;20021;-56
2022/01/22 04:31:03;;;;;;;55.23;29.43;;;;;;;4.20;98.18;103331.19;5027370;28;20512;-56
2022/01/22 04:33:29;;;;;;;54.40;30.17;;;;;;;4.23;98.38;103330.19;5027331;28;20025;-56
2022/01/22 04:35:54;;;;;;;52.83;30.10;;;;;;;4.22;98.41;103333.75;5027197;28;20031;-55
2022/01/22 04:38:19;;;;;;;56.07;29.37;;;;;;;4.21;98.53;103329.41;5022835;28;20033;-55
2022/01/22 04:40:45;;;;;;;59.60;30.50;;;;;;;4.21;98.26;103327.63;5026886;28;20157;-54
2022/01/22 04:43:10;;;;;;;55.13;30.97;;;;;;;4.22;98.58;103329.31;5027542;28;20493;-53
2022/01/22 04:48:27;;;;;;;58.90;29.90;;;;;;;4.22;98.43;103334.59;5027397;28;20480;-56
2022/01/22 04:56:21;;;;;;;51.73;30.53;;;;;;;4.22;98.71;103331.97;5026184;28;20049;-52
2022/01/22 04:58:46;;;;;;;58.37;30.90;;;;;;;4.23;99.08;103324.91;5026353;28;20025;-56
2022/01/22 05:01:12;;;;;;;66.30;31.63;;;;;;;4.23;98.75;103331.03;5027391;28;20392;-56
2022/01/22 05:03:37;;;;;;;61.27;31.30;;;;;;;4.25;98.76;103328.34;5027320;28;20484;-55
2022/01/22 05:06:06;;;;;;;54.13;29.33;;;;;;;4.24;98.99;103326.63;5027428;28;20040;-56
2022/01/22 05:08:32;;;;;;;59.15;31.23;;;;;;;4.24;98.65;103329.25;5027002;28;20021;-56
2022/01/22 05:10:57;;;;;;;63.60;31.40;;;;;;;4.23;99.09;103331.03;5026060;28;20409;-56
2022/01/22 05:13:22;;;;;;;65.10;31.70;;;;;;;4.24;99.09;103321.38;5026735;28;20684;-55
2022/01/22 05:15:47;;;;;;;60.97;31.53;;;;;;;4.23;99.23;103317.03;5027858;28;20030;-56
2022/01/22 05:18:13;;;;;;;56.73;31.70;;;;;;;4.24;98.82;103318.75;5026800;28;20473;-54
2022/01/22 05:20:47;;;;;;;61.33;32.13;;;;;;;4.24;99.30;103322.22;5026812;28;20025;-56
2022/01/22 05:23:17;;;;;;;64.97;31.53;;;;;;;4.24;99.31;103318.75;5025099;28;20033;-54
2022/01/22 05:25:52;;;;;;;67.63;31.43;;;;;;;4.26;99.11;103311.63;5025301;28;20052;-55
2022/01/22 05:33:32;;;;;;;56.67;30.40;;;;;;;4.24;99.25;103306.44;5027530;28;20388;-54
2022/01/22 05:38:42;;;;;;;59.13;29.33;;;;;;;4.30;99.60;103319.31;5028784;28;20044;-54
2022/01/22 05:41:07;;;;;;;60.57;30.67;;;;;;;4.31;99.48;103321.03;5031217;28;20026;-56
2022/01/22 05:43:33;;;;;;;63.07;28.97;;;;;;;4.33;99.27;103323.56;5030408;28;20120;-56
2022/01/22 05:45:58;;;;;;;57.03;29.33;;;;;;;4.33;99.50;103318.31;5030630;28;20025;-56
2022/01/22 05:48:23;;;;;;;60.03;29.60;;;;;;;4.32;99.49;103322.72;5030456;28;20128;-55
2022/01/22 05:50:53;;;;;;;59.57;29.00;;;;;;;4.34;99.58;103325.31;5029191;28;20018;-55
2022/01/22 06:01:05;;;;;;;56.90;27.63;;;;;;;4.41;99.92;103329.38;5026983;28;20041;-55
2022/01/22 06:03:31;;;;;;;61.83;28.27;;;;;;;4.43;99.79;103332.78;5030552;28;20029;-54
2022/01/22 06:05:56;;;;;;;57.80;27.03;;;;;;;4.44;99.84;103331.84;5029667;28;20022;-55
2022/01/22 06:08:22;;;;;;;55.40;27.63;;;;;;;4.45;99.98;103335.34;5030041;28;20022;-55
2022/01/22 06:10:53;;;;;;;62.10;27.77;;;;;;;4.44;99.95;103334.50;5029171;28;20022;-56
2022/01/22 06:13:21;;;;;;;50.43;26.77;;;;;;;4.47;99.99;103338.75;5029718;28;20485;-54
2022/01/22 06:15:46;;;;;;;54.40;27.13;;;;;;;4.47;100.00;103329.09;5030826;28;20116;-56
2022/01/22 06:18:11;;;;;;;57.27;27.73;;;;;;;4.48;100.00;103329.94;5029340;28;20141;-57
2022/01/22 06:20:37;;;;;;;52.73;26.00;;;;;;;4.49;100.00;103329.88;5029501;28;20018;-55
2022/01/22 06:23:03;;;;;;;58.60;26.67;;;;;;;4.48;100.00;103324.69;5029348;28;20025;-56
2022/01/22 06:25:29;;;;;;;58.87;25.93;;;;;;;4.50;100.00;103331.56;5025420;28;20496;-56
2022/01/22 06:27:54;;;;;;;59.00;26.83;;;;;;;4.51;100.00;103335.91;5030045;28;20056;-55
2022/01/22 06:30:20;;;;;;;57.83;26.07;;;;;;;4.51;100.00;103335.91;5027656;28;20071;-55
2022/01/22 06:32:45;;;;;;;54.63;25.30;;;;;;;4.53;100.00;103343.72;5029382;28;20370;-56
2022/01/22 06:35:12;;;;;;;59.37;25.60;;;;;;;4.53;100.00;103334.06;5025730;28;20057;-56
2022/01/22 06:37:37;;;;;;;51.57;24.00;;;;;;;4.56;100.00;103343.59;5029086;28;20472;-56
2022/01/22 06:42:32;;;;;;;47.03;24.67;;;;;;;4.57;100.00;103347.94;5029954;28;20049;-56
2022/01/22 06:44:58;;;;;;;51.90;26.20;;;;;;;4.58;100.00;103347.84;5028951;28;20021;-56
2022/01/22 06:47:25;;;;;;;54.67;23.73;;;;;;;4.61;100.00;103344.22;5028029;28;20091;-56
2022/01/22 06:49:50;;;;;;;47.70;23.57;;;;;;;4.62;100.00;103338.88;5028264;28;20503;-56
2022/01/22 06:52:16;;;;;;;45.67;23.07;;;;;;;4.65;100.00;103346.69;5029038;28;20029;-56
2022/01/22 06:54:43;;;;;;;42.60;22.23;;;;;;;4.66;100.00;103350.16;5029404;28;20025;-57
2022/01/22 06:57:08;;;;;;;48.27;22.90;;;;;;;4.69;100.00;103351.78;5028180;28;20021;-56
2022/01/22 06:59:34;;;;;;;46.83;22.50;;;;;;;4.71;100.00;103357.84;5025898;28;20025;-54
2022/01/22 07:01:59;;;;;;;44.40;22.30;;;;;;;4.71;100.00;103352.56;5028434;28;20037;-56
2022/01/22 07:04:24;;;;;;;49.00;22.03;;;;;;;4.72;99.94;103360.41;5028698;28;20026;-55
2022/01/22 07:06:50;;;;;;;45.63;20.80;;;;;;;4.74;99.96;103360.31;5029310;28;20030;-55
2022/01/22 07:09:15;;;;;;;48.37;20.87;;;;;;;4.74;99.57;103350.66;5027698;28;20035;-55
2022/01/22 07:11:40;;;;;;;37.73;20.13;;;;;;;4.75;99.96;103359.41;5028696;28;20029;-56
2022/01/22 07:14:05;;;;;;;43.63;19.63;;;;;;;4.78;99.62;103367.16;5028269;28;20495;-57
2022/01/22 07:16:31;;;;;;;40.43;20.43;;;;;;;4.79;99.90;103367.09;5028050;28;20049;-56
2022/01/22 07:19:00;;;;;;;39.10;19.90;;;;;;;4.82;99.58;103376.63;5028242;28;20090;-56
2022/01/22 07:21:29;;;;;;;44.65;20.00;;;;;;;4.85;99.49;103376.47;5028412;28;20033;-57
2022/01/22 07:24:22;;;;;;;44.77;20.00;;;;;;;4.84;99.68;103372.97;5029627;28;20504;-56
2022/01/22 07:26:39;;;;;;;35.07;18.83;;;;;;;4.86;99.43;103376.41;5027478;28;20025;-55
2022/01/22 07:29:05;;;;;;;42.17;20.17;;;;;;;4.87;99.05;103385.16;5027196;28;20033;-56
2022/01/22 07:31:30;;;;;;;39.87;20.00;;;;;;;4.88;99.22;103382.44;5028355;28;20022;-55
2022/01/22 07:33:55;;;;;;;40.77;20.17;;;;;;;4.87;99.13;103382.50;5028682;28;20521;-56
2022/01/22 07:36:21;;;;;;;42.23;19.40;;;;;;;4.88;98.80;103378.97;5026729;28;20056;-55
2022/01/22 07:38:46;;;;;;;38.37;19.57;;;;;;;4.88;98.75;103381.59;5026855;28;20022;-57
2022/01/22 07:41:12;;;;;;;39.27;19.43;;;;;;;4.88;98.88;103389.47;5029637;28;20029;-56
2022/01/22 07:43:38;;;;;;;42.00;19.47;;;;;;;4.86;98.84;103394.81;5028290;28;20025;-54
2022/01/22 07:46:05;;;;;;;37.90;18.37;;;;;;;4.87;98.68;103395.69;5029520;28;20026;-56
2022/01/22 07:48:31;;;;;;;40.60;18.80;;;;;;;4.87;99.09;103400.94;5026842;28;20445;-56
2022/01/22 07:50:56;;;;;;;37.50;18.00;;;;;;;4.87;98.67;103400.94;5028452;28;20041;-55
2022/01/22 07:53:24;;;;;;;40.50;18.60;;;;;;;4.88;98.75;103397.38;5028112;28;20021;-56
2022/01/22 07:55:49;;;;;;;40.07;19.03;;;;;;;4.89;99.00;103399.09;5026708;28;20037;-55
2022/01/22 07:58:14;;;;;;;39.17;18.30;;;;;;;4.91;98.96;103406.00;5028388;28;20084;-56
2022/01/22 08:00:40;;;;;;;32.97;17.80;;;;;;;4.92;98.71;103402.47;5028380;28;20033;-56
2022/01/22 08:03:06;;;;;;;40.33;17.73;;;;;;;4.93;98.81;103401.53;5028459;28;20022;-55
2022/01/22 08:05:32;;;;;;;37.77;18.43;;;;;;;4.92;98.76;103397.19;5023533;28;20466;-56
2022/01/22 08:07:57;;;;;;;40.80;18.23;;;;;;;4.93;98.70;103395.41;5028498;28;20049;-56
2022/01/22 08:10:23;;;;;;;40.63;18.73;;;;;;;4.91;98.76;103384.94;5027840;28;20519;-56
2022/01/22 08:12:50;;;;;;;45.20;19.13;;;;;;;4.92;98.74;103391.94;5028289;28;20365;-55
2022/01/22 08:15:16;;;;;;;43.40;18.87;;;;;;;4.92;98.72;103393.72;5029158;28;20032;-55
2022/01/22 08:17:42;;;;;;;40.40;18.60;;;;;;;4.90;98.72;103385.00;5028125;28;20057;-55
2022/01/22 08:20:08;;;;;;;46.20;18.93;;;;;;;4.96;98.86;103387.38;5027419;28;20068;-55
2022/01/22 08:22:34;;;;;;;39.03;18.53;;;;;;;5.04;99.41;103392.28;5025934;28;20033;-54
2022/01/22 08:25:01;;;;;;;40.13;19.37;;;;;;;5.08;99.22;103392.06;5027329;28;20018;-55
2022/01/22 08:29:52;;;;;;;38.03;18.30;;;;;;;5.18;99.30;103389.81;5025227;28;20128;-56
2022/01/22 08:37:26;;;;;;;38.13;16.90;;;;;;;5.24;98.90;103384.28;5038759;28;20507;-56
2022/01/22 08:39:51;;;;;;;37.73;15.93;;;;;;;5.23;98.97;103387.84;5028551;28;20029;-56
2022/01/22 08:42:17;;;;;;;32.10;16.07;;;;;;;5.25;98.96;103388.63;5027824;28;20079;-54
2022/01/22 08:44:42;;;;;;;29.03;14.83;;;;;;;5.24;99.09;103385.16;5028217;28;20017;-56
2022/01/22 08:47:08;;;;;;;38.20;14.90;;;;;;;5.24;98.89;103386.94;5026393;28;20509;-55
2022/01/22 08:49:33;;;;;;;33.37;14.33;;;;;;;5.26;98.58;103388.56;5026121;28;20040;-56
2022/01/22 08:51:58;;;;;;;31.67;14.03;;;;;;;5.26;98.66;103393.81;5023156;28;20033;-55
2022/01/22 08:54:24;;;;;;;29.53;13.87;;;;;;;5.27;98.56;103394.69;5026144;28;20068;-56
2022/01/22 08:56:49;;;;;;;27.30;12.47;;;;;;;5.29;98.40;103396.31;5030002;28;20037;-56
2022/01/22 08:59:15;;;;;;;25.73;13.07;;;;;;;5.32;98.50;103397.94;5030084;28;20037;-54
2022/01/22 09:01:43;;;;;;;31.83;12.50;;;;;;;5.33;98.61;103404.91;5030711;28;20045;-55
2022/01/22 09:04:08;;;;;;;24.97;11.60;;;;;;;5.36;98.53;103409.19;5031646;28;20117;-56
2022/01/22 09:06:34;;;;;;;25.27;12.03;;;;;;;5.37;98.42;103406.47;5032365;28;20116;-55
2022/01/22 09:09:09;;;;;;;27.57;11.40;;;;;;;5.40;97.96;103405.47;5028291;28;20053;-57
2022/01/22 09:11:35;;;;;;;24.20;11.60;;;;;;;5.43;97.95;103416.72;5028449;28;20045;-54
2022/01/22 09:14:02;;;;;;;22.97;11.20;;;;;;;5.44;97.88;103415.78;5016935;28;20185;-55
2022/01/22 09:16:28;;;;;;;24.80;10.33;;;;;;;5.46;98.14;103419.19;5023011;28;20117;-55
2022/01/22 09:18:54;;;;;;;26.63;11.60;;;;;;;5.48;97.92;103422.59;5027322;28;20041;-56
2022/01/22 09:21:19;;;;;;;27.13;11.00;;;;;;;5.50;97.83;103417.28;5030287;28;20055;-54
2022/01/22 09:23:45;;;;;;;21.90;10.90;;;;;;;5.51;97.49;103416.38;5029719;28;20423;-55
2022/01/22 09:26:10;;;;;;;23.00;10.60;;;;;;;5.51;97.48;103419.00;5030568;28;20492;-56
2022/01/22 09:28:36;;;;;;;23.77;11.17;;;;;;;5.56;97.37;103425.75;5029558;28;20021;-55
2022/01/22 09:31:02;;;;;;;22.93;10.20;;;;;;;5.56;97.37;103428.38;5029795;28;20115;-55
2022/01/22 09:33:28;;;;;;;23.23;10.23;;;;;;;5.60;97.00;103426.44;5026490;28;20036;-57
2022/01/22 09:35:53;;;;;;;24.03;10.93;;;;;;;5.62;97.25;103440.41;5030543;28;20037;-57
2022/01/22 09:38:19;;;;;;;23.03;10.60;;;;;;;5.64;96.98;103440.34;5031346;28;20393;-53
2022/01/22 09:40:44;;;;;;;28.20;11.30;;;;;;;5.64;96.94;103446.47;5031070;28;20033;-56
2022/01/22 09:43:11;;;;;;;30.20;11.00;;;;;;;5.65;96.78;103447.31;5030710;28;20029;-56
2022/01/22 09:45:37;;;;;;;24.57;10.90;;;;;;;5.67;97.13;103450.72;5030248;28;20306;-56
2022/01/22 09:48:03;;;;;;;25.47;11.50;;;;;;;5.67;96.64;103450.72;5029825;28;20558;-56
2022/01/22 09:50:31;;;;;;;25.50;11.27;;;;;;;5.68;97.06;103455.91;5029433;28;20029;-56
2022/01/22 09:52:57;;;;;;;21.13;11.13;;;;;;;5.69;96.63;103455.00;5030452;28;20060;-56
2022/01/22 09:55:23;;;;;;;21.87;11.50;;;;;;;5.72;97.03;103456.63;5029688;28;20048;-57
2022/01/22 09:57:49;;;;;;;24.10;11.47;;;;;;;5.72;96.74;103457.47;5029778;28;20017;-56
2022/01/22 10:00:18;;;;;;;26.97;11.50;;;;;;;5.74;96.86;103458.25;5024807;28;20021;-57
2022/01/22 10:02:49;;;;;;;22.70;10.97;;;;;;;5.76;96.41;103466.94;5026343;28;20391;-56
2022/01/22 10:05:37;;;;;;;24.73;11.27;;;;;;;5.79;96.55;103452.78;5029596;28;20481;-56
2022/01/22 10:08:29;;;;;;;21.27;11.20;;;;;;;5.80;96.76;103452.72;5028623;28;20314;-55
2022/01/22 10:10:56;;;;;;;22.23;10.73;;;;;;;5.81;96.34;103457.06;5024933;28;20549;-57
2022/01/22 10:13:45;;;;;;;23.93;10.20;;;;;;;5.83;96.35;103456.97;5025650;28;20479;-56
2022/01/22 10:16:13;;;;;;;22.25;10.07;;;;;;;5.84;96.18;103459.53;5026787;28;20044;-54
2022/01/22 10:18:39;;;;;;;25.03;10.70;;;;;;;5.85;95.92;103465.66;5026217;28;20040;-56
2022/01/22 10:21:10;;;;;;;20.43;10.63;;;;;;;5.86;96.32;103464.72;5029788;28;20056;-57
2022/01/22 10:23:39;;;;;;;25.20;11.97;;;;;;;5.87;96.23;103472.56;5029946;28;20376;-54
2022/01/22 10:26:08;;;;;;;25.75;12.73;;;;;;;5.87;96.25;103474.34;5027895;28;20476;-56
2022/01/22 10:28:47;;;;;;;26.23;12.98;;;;;;;5.87;96.03;103467.28;5026741;28;20056;-53
2022/01/22 10:31:20;;;;;;;24.75;13.35;;;;;;;5.87;96.23;103458.53;5028699;28;20104;-55
2022/01/22 10:34:06;;;;;;;33.73;13.47;;;;;;;5.88;95.74;103460.22;5028840;28;20029;-56
2022/01/22 10:36:32;;;;;;;23.63;12.93;;;;;;;5.88;96.03;103458.44;5029115;28;20040;-55
2022/01/22 10:38:58;;;;;;;22.07;12.77;;;;;;;5.88;96.30;103466.34;5028254;28;20033;-55
2022/01/22 10:41:37;;;;;;;28.90;13.00;;;;;;;5.88;96.04;103463.72;5028117;28;20103;-55
2022/01/22 10:44:04;;;;;;;31.23;12.02;;;;;;;5.88;96.30;103466.34;5026029;28;20382;-53
2022/01/22 10:47:02;;;;;;;24.73;13.57;;;;;;;5.89;95.96;103465.47;5027957;28;20056;-56
2022/01/22 10:49:28;;;;;;;29.23;13.70;;;;;;;5.93;96.36;103468.78;5026766;28;20374;-57
2022/01/22 10:51:59;;;;;;;21.20;11.73;;;;;;;5.94;96.17;103462.59;5027219;28;20040;-56
2022/01/22 10:54:27;;;;;;;23.60;12.33;;;;;;;5.97;96.11;103474.78;5029040;28;20578;-56
2022/01/22 10:56:54;;;;;;;26.20;11.63;;;;;;;5.97;96.24;103477.41;5027793;28;20025;-57
2022/01/22 10:59:21;;;;;;;25.10;13.03;;;;;;;5.97;95.75;103477.41;5027232;28;20634;-57
2022/01/22 11:01:55;;;;;;;28.87;12.43;;;;;;;5.96;95.76;103478.34;5030234;28;20021;-55
2022/01/22 11:04:26;;;;;;;25.80;13.10;;;;;;;5.98;95.93;103468.56;5029172;28;20029;-55
2022/01/22 11:07:03;;;;;;;32.33;13.70;;;;;;;5.95;95.77;103460.81;5030422;28;20207;-56
2022/01/22 11:09:30;;;;;;;24.97;13.40;;;;;;;5.98;95.59;103465.94;5028897;28;20029;-56
2022/01/22 11:11:59;;;;;;;25.17;13.67;;;;;;;5.98;95.92;103463.28;5029046;28;20032;-56
2022/01/22 11:14:27;;;;;;;29.90;14.50;;;;;;;5.96;95.53;103452.81;5028365;28;20021;-57
2022/01/22 11:16:53;;;;;;;27.43;14.87;;;;;;;5.95;95.80;103450.25;5027889;28;20642;-57
2022/01/22 11:19:24;;;;;;;31.70;14.93;;;;;;;5.94;95.98;103443.28;5027609;28;20030;-56
2022/01/22 11:21:52;;;;;;;30.53;15.50;;;;;;;5.93;95.54;103447.69;5029721;28;20026;-55
2022/01/22 11:24:23;;;;;;;33.20;16.90;;;;;;;5.92;95.88;103455.69;5026653;28;20044;-56
2022/01/22 11:26:51;;;;;;;34.67;16.33;;;;;;;5.90;95.90;103448.72;5027664;28;20832;-56
2022/01/22 11:29:18;;;;;;;28.87;17.07;;;;;;;5.87;95.93;103447.97;5026473;28;20070;-56
2022/01/22 11:31:46;;;;;;;29.83;16.87;;;;;;;5.89;96.26;103451.38;5027976;28;20021;-55
2022/01/22 11:34:14;;;;;;;28.27;16.97;;;;;;;5.90;96.28;103453.97;5026781;28;20716;-56
2022/01/22 11:37:02;;;;;;;33.20;17.60;;;;;;;5.93;96.25;103446.84;5028654;28;20030;-57
2022/01/22 11:39:28;;;;;;;29.47;16.17;;;;;;;5.94;96.49;103445.91;5027809;28;20106;-54
2022/01/22 11:41:57;;;;;;;39.20;16.80;;;;;;;5.95;96.73;103455.53;5028614;28;20452;-55
2022/01/22 11:44:33;;;;;;;35.75;17.63;;;;;;;5.98;96.62;103456.22;5026291;28;20548;-56
2022/01/22 11:47:17;;;;;;;34.67;17.47;;;;;;;6.01;96.75;103458.72;5025581;28;20378;-56
2022/01/22 11:50:07;;;;;;;29.50;16.10;;;;;;;6.04;96.67;103457.69;5026105;28;20037;-56
2022/01/22 11:52:42;;;;;;;33.60;16.73;;;;;;;6.03;96.28;103451.56;5028319;28;20033;-54
2022/01/22 11:55:14;;;;;;;32.13;17.00;;;;;;;6.06;96.35;103453.19;5026655;28;20063;-54
2022/01/22 11:57:41;;;;;;;27.77;15.83;;;;;;;6.06;96.23;103451.41;5025923;28;20029;-56
2022/01/22 12:00:24;;;;;;;28.70;15.50;;;;;;;6.08;96.48;103459.28;5023860;28;20461;-56
2022/01/22 12:03:08;;;;;;;31.80;16.37;;;;;;;6.09;96.42;103459.19;5026723;28;20156;-56
2022/01/22 12:05:53;;;;;;;33.47;16.97;;;;;;;6.10;96.43;103452.16;5023677;28;20021;-56
2022/01/22 12:08:20;;;;;;;29.93;16.47;;;;;;;6.07;96.29;103439.97;5024388;28;20405;-56
2022/01/22 12:16:44;;;;;;;32.27;17.27;;;;;;;6.06;96.30;103442.66;5022982;28;20036;-57
2022/01/22 12:20:03;;;;;;;30.93;18.03;;;;;;;6.05;96.59;103441.78;5026477;28;20549;-56
2022/01/22 12:22:31;;;;;;;31.45;17.60;;;;;;;6.05;96.75;103431.25;5027603;28;20397;-56
2022/01/22 12:25:00;;;;;;;39.87;19.13;;;;;;;6.06;96.50;103442.66;5024746;28;20132;-54
2022/01/22 12:27:41;;;;;;;38.20;18.80;;;;;;;6.07;96.79;103444.34;5027755;28;20029;-56
2022/01/22 12:30:06;;;;;;;33.10;18.57;;;;;;;6.04;96.95;103442.72;5024703;28;20052;-55
2022/01/22 12:32:43;;;;;;;34.97;18.67;;;;;;;6.06;96.47;103448.78;5026517;28;20393;-55
2022/01/22 12:35:12;;;;;;;37.10;20.10;;;;;;;6.05;96.69;103441.78;5024968;28;20030;-56
2022/01/22 12:37:41;;;;;;;35.53;20.63;;;;;;;6.05;96.95;103443.59;5022778;28;20075;-56
2022/01/22 12:40:07;;;;;;;;;;;;;;;6.09;96.64;103440.75;5026432;28;20029;-56
2022/01/22 12:42:52;;;;;;;34.57;21.03;;;;;;;6.04;96.81;103434.81;5024249;28;19909;-56
2022/01/22 12:45:20;;;;;;;33.93;21.90;;;;;;;6.01;96.51;103436.75;5024823;28;20393;-55
2022/01/22 12:47:47;;;;;;;42.33;24.80;;;;;;;6.02;96.78;103451.66;5023321;28;20079;-56
2022/01/22 12:50:13;;;;;;;43.00;24.43;;;;;;;6.00;96.64;103442.97;5024136;28;20059;-56
2022/01/22 12:52:41;;;;;;;38.37;24.53;;;;;;;6.01;96.59;103453.44;5027500;28;20036;-56
2022/01/22 12:55:18;;;;;;;42.87;23.97;;;;;;;6.00;96.34;103456.16;5027210;28;20032;-56
2022/01/22 12:57:44;;;;;;;40.33;23.33;;;;;;;5.99;96.83;103446.53;5027349;28;20430;-56
2022/01/22 13:00:14;;;;;;;44.40;24.80;;;;;;;5.99;96.28;103463.22;5024803;28;20053;-56
2022/01/22 13:02:57;;;;;;;43.57;24.80;;;;;;;6.00;96.63;103469.34;5027304;28;20048;-53
2022/01/22 13:05:24;;;;;;;44.43;25.57;;;;;;;5.97;96.49;103458.94;5027732;28;20049;-56